Terminal Aerodrome Forecast
Issued by NWS

Home | Current Version | Previous Version | Text Only | Print | Product List | Glossary On
Versions: 1 2 3 4 5 6 7 8 9 10 11 12 13 14 15 16 17 18 19 20 21 22 23 24 25 26 27 28 29 30
000
FTUS46 KLOX 212300 RRA
TAFSBP
TAF
KSBP 212345Z 2200/2224 33015G22KT P6SM SKC
     FM220300 31008KT P6SM SKC
     FM220700 VRB04KT P6SM SKC
     FM222000 31014G22KT P6SM SKC=

USA.gov is the U.S. government's official web portal to all federal, state and local government web resources and services.